createdAt,value
2022-08-26T19:36:18.176Z,21.08
2022-08-26T19:38:45.481Z,18.10
2022-08-26T19:41:17.541Z,15.80
2022-08-26T19:43:43.902Z,19.13
2022-08-26T19:46:15.348Z,22.50
2022-08-26T19:48:44.034Z,24.45
2022-08-26T19:51:24.444Z,23.20
2022-08-26T19:53:52.409Z,28.55
2022-08-26T19:56:18.851Z,25.92
2022-08-26T19:58:45.340Z,17.75
2022-08-26T20:01:13.250Z,22.48
2022-08-26T20:03:40.736Z,20.45
2022-08-26T20:06:09.417Z,17.52
2022-08-26T20:08:36.747Z,22.33
2022-08-26T20:11:05.391Z,17.40
2022-08-26T20:13:32.651Z,20.10
2022-08-26T20:15:59.198Z,19.17
2022-08-26T20:18:44.044Z,18.88
2022-08-26T20:21:29.234Z,18.45
2022-08-26T20:24:05.998Z,22.40
2022-08-26T20:26:34.794Z,18.02
2022-08-26T20:29:01.399Z,17.83
2022-08-26T20:31:28.199Z,18.65
2022-08-26T20:33:55.243Z,19.67
2022-08-26T20:36:23.314Z,19.08
2022-08-26T20:38:50.045Z,22.63
2022-08-26T20:41:17.017Z,19.42
2022-08-26T20:43:43.635Z,18.90
2022-08-26T20:46:18.003Z,20.13
2022-08-26T20:48:47.359Z,19.27
2022-08-26T20:51:13.601Z,17.65
2022-08-26T20:53:40.002Z,21.23
2022-08-26T20:56:08.976Z,22.15
2022-08-26T20:58:36.216Z,18.02
2022-08-26T21:01:07.299Z,19.10
2022-08-26T21:03:34.149Z,20.17
2022-08-26T21:06:00.357Z,19.55
2022-08-26T21:08:26.545Z,21.55
2022-08-26T21:10:52.715Z,19.75
2022-08-26T21:13:18.931Z,15.82
2022-08-26T21:15:45.477Z,21.98
2022-08-26T21:18:12.087Z,19.50
2022-08-26T21:20:38.325Z,19.92
2022-08-26T21:23:05.865Z,19.95
2022-08-26T21:25:32.013Z,16.30
2022-08-26T21:27:58.163Z,16.65
2022-08-26T21:30:24.315Z,16.77
2022-08-26T21:32:50.483Z,17.98
2022-08-26T21:35:16.628Z,16.85
2022-08-26T21:37:42.802Z,17.58
2022-08-26T21:40:10.155Z,17.40
2022-08-26T21:42:36.589Z,16.00
2022-08-26T21:45:03.921Z,16.90
2022-08-26T21:47:32.150Z,17.40
2022-08-26T21:49:59.023Z,17.92
2022-08-26T21:52:25.246Z,16.52
2022-08-26T21:54:51.380Z,17.67
2022-08-26T21:57:18.593Z,16.65
2022-08-26T21:59:44.757Z,16.20
2022-08-26T22:02:10.982Z,19.75
2022-08-26T22:04:37.431Z,17.50
2022-08-26T22:07:03.659Z,16.83
2022-08-26T22:09:33.140Z,17.77
2022-08-26T22:12:00.514Z,19.40
2022-08-26T22:14:30.607Z,16.92
2022-08-26T22:16:58.289Z,23.77
2022-08-26T22:19:25.297Z,29.58
2022-08-26T22:21:53.401Z,37.50
2022-08-26T22:24:21.696Z,25.45
2022-08-26T22:26:48.860Z,28.63
2022-08-26T22:29:16.256Z,25.15
2022-08-26T22:31:42.528Z,19.45
2022-08-26T22:34:11.541Z,17.80
2022-08-26T22:36:43.973Z,19.10
2022-08-26T22:39:11.250Z,20.45
2022-08-26T22:41:37.437Z,22.70
2022-08-26T22:44:04.243Z,20.65
2022-08-26T22:46:30.467Z,21.17
2022-08-26T22:48:56.649Z,17.67
2022-08-26T22:51:23.195Z,21.50
2022-08-26T22:53:49.664Z,20.58
2022-08-26T22:56:18.362Z,20.08
2022-08-26T22:58:44.496Z,20.10
2022-08-26T23:01:10.700Z,22.45
2022-08-26T23:03:36.954Z,22.80
2022-08-26T23:06:06.393Z,21.60
2022-08-26T23:08:32.537Z,16.77
2022-08-26T23:10:58.684Z,19.95
2022-08-26T23:13:24.824Z,22.25
2022-08-26T23:16:02.380Z,19.58
2022-08-26T23:18:28.822Z,24.50
2022-08-26T23:20:55.916Z,20.40
2022-08-26T23:23:22.826Z,23.95
2022-08-26T23:25:49.918Z,22.42
2022-08-26T23:28:16.817Z,22.08
2022-08-26T23:30:43.595Z,26.00
2022-08-26T23:33:09.739Z,23.30
2022-08-26T23:35:35.898Z,21.45
2022-08-26T23:38:04.995Z,28.38
2022-08-26T23:40:33.572Z,25.77
2022-08-26T23:43:03.411Z,23.58
2022-08-26T23:45:30.490Z,25.63
2022-08-26T23:47:56.767Z,27.30
2022-08-26T23:50:48.637Z,23.40
2022-08-26T23:53:20.085Z,27.50
2022-08-26T23:55:51.187Z,30.73
2022-08-26T23:58:19.041Z,27.90
